Toyomasa Maru — JJ3927 — position and weather

sailwx.info

Track history (hours):
 
Tides and Currents Weather Stations Pressure Air Temp Water Temp Dewpoint Dewpoint Depression Visibility Wind Speed Wind Dir Waves Ship Positions

Toyomasa Maru

Last reported at 2018-Feb-21 03:23 UTC. Time now 2018-Feb-21 03:54 UTC.
Position N 34°34' E 138°60'.

Length 101 m; draft 6.7 m.

Type: Tanker. MMSI: 431300401.

Date/timePositionNaut miles runAvg speedWind from/ knotsBaromVisibWave heightAir tempDewpointWater temp
2018-Feb-21 03:23N 34°34' E 138°60'411.7
2018-Feb-21 03:00N 34°33' E 138°55'1211.1
2018-Feb-21 01:54N 34°32' E 138°40'512.2
2018-Feb-21 01:27N 34°31' E 138°33'812.4
2018-Feb-21 00:50N 34°32' E 138°24'512.2
2018-Feb-21 00:25N 34°32' E 138°18'712.3
2018-Feb-20 23:53N 34°33' E 138°10'512.8
2018-Feb-20 23:30N 34°33' E 138°04'4012.6
2018-Feb-20 20:19N 34°32' E 137°16'2011.2
2018-Feb-20 18:30N 34°39' E 136°52'612.2
2018-Feb-20 18:00N 34°43' E 136°48'612.4
2018-Feb-20 17:30N 34°49' E 136°45'612.1
2018-Feb-20 17:01N 34°55' E 136°42'4 7.5
2018-Feb-20 16:31N 34°57' E 136°38'0 0.1
2018-Feb-20 15:07N 34°57' E 136°38'0 0.2
2018-Feb-20 14:55N 34°57' E 136°38'0 0.0
2018-Feb-20 13:43N 34°57' E 136°38'0 0.0
2018-Feb-20 13:28N 34°57' E 136°38'0 0.0
2018-Feb-20 12:58N 34°57' E 136°38'0 0.0
2018-Feb-20 12:25N 34°57' E 136°38'0 0.0
2018-Feb-20 11:49N 34°57' E 136°38'0 0.0
2018-Feb-20 11:25N 34°57' E 136°38'0 0.1
2018-Feb-20 10:58N 34°57' E 136°38'0 0.1
2018-Feb-20 10:25N 34°57' E 136°38'0 0.0
2018-Feb-20 09:55N 34°57' E 136°38'0 0.0
2018-Feb-20 09:25N 34°57' E 136°38'0 0.0
2018-Feb-20 08:55N 34°57' E 136°38'0 0.0
2018-Feb-20 08:25N 34°57' E 136°38'0 0.0
2018-Feb-20 07:55N 34°57' E 136°38'0 0.0
2018-Feb-20 07:30N 34°57' E 136°38'2 4.4
2018-Feb-20 07:00N 34°56' E 136°41'3 4.9
2018-Feb-20 06:25N 34°53' E 136°41'0 0.1
2018-Feb-20 05:58N 34°53' E 136°41'0 0.1
2018-Feb-20 05:28N 34°53' E 136°41'0 0.0
2018-Feb-20 04:58N 34°53' E 136°41'0 0.0
2018-Feb-20 04:28N 34°53' E 136°41'0 0.1
2018-Feb-20 03:55N 34°53' E 136°41'0 0.0
2018-Feb-20 03:28N 34°53' E 136°41'0 0.1
2018-Feb-20 02:58N 34°53' E 136°41'0 0.0
2018-Feb-20 02:25N 34°53' E 136°41'0 0.0
2018-Feb-20 01:58N 34°53' E 136°41'0 0.0
2018-Feb-20 01:28N 34°53' E 136°41'0 0.0
2018-Feb-20 00:55N 34°53' E 136°41'0 0.1
2018-Feb-20 00:28N 34°53' E 136°41'0 0.0
2018-Feb-19 23:55N 34°53' E 136°41'0 0.0
2018-Feb-19 23:25N 34°53' E 136°41'0 0.0
2018-Feb-19 22:55N 34°53' E 136°41'0 0.1
2018-Feb-19 22:28N 34°53' E 136°41'0 0.0
2018-Feb-19 21:58N 34°53' E 136°41'0 0.1
2018-Feb-19 21:28N 34°53' E 136°41'510.2
2018-Feb-19 21:00N 34°50' E 136°44'612.5
2018-Feb-19 20:30N 34°45' E 136°49'612.4
2018-Feb-19 20:00N 34°39' E 136°53'712.8
2018-Feb-19 19:29N 34°35' E 136°59'106 9.2
2018-Feb-19 07:58N 33°50' E 135°03'613.2
2018-Feb-19 07:30N 33°55' E 134°60'713.6
2018-Feb-19 07:00N 34°02' E 134°59'713.6
2018-Feb-19 06:30N 34°09' E 134°59'713.9
2018-Feb-19 06:00N 34°16' E 134°58'612.6
2018-Feb-19 05:30N 34°22' E 135°01'713.2
2018-Feb-19 05:00N 34°24' E 135°08'5 9.1
2018-Feb-19 04:31N 34°24' E 135°14'1 1.8
2018-Feb-19 04:00N 34°25' E 135°14'0 0.0
2018-Feb-19 03:30N 34°25' E 135°14'0 0.0
2018-Feb-19 03:00N 34°25' E 135°14'0 0.0
2018-Feb-19 02:30N 34°25' E 135°14'0 0.0
2018-Feb-19 02:00N 34°25' E 135°14'0 0.0
2018-Feb-19 01:30N 34°25' E 135°14'0 0.0
2018-Feb-19 01:00N 34°25' E 135°14'0 0.0
2018-Feb-19 00:30N 34°25' E 135°14'1 2.0
2018-Feb-19 00:00N 34°24' E 135°14'3 6.1
2018-Feb-18 23:30N 34°25' E 135°11'2 3.7
2018-Feb-18 23:01N 34°24' E 135°09'1 2.3
2018-Feb-18 22:28N 34°24' E 135°08'0 0.1
2018-Feb-18 21:58N 34°24' E 135°08'0 0.1
2018-Feb-18 21:28N 34°23' E 135°08'0 0.0
2018-Feb-18 20:58N 34°23' E 135°08'0 0.0
2018-Feb-18 20:28N 34°23' E 135°08'0 0.0
2018-Feb-18 19:58N 34°23' E 135°08'0 0.0
2018-Feb-18 19:28N 34°23' E 135°08'0 0.0
2018-Feb-18 18:58N 34°23' E 135°08'0 0.0
2018-Feb-18 18:28N 34°23' E 135°08'0 0.0
2018-Feb-18 17:58N 34°23' E 135°08'0 0.0
2018-Feb-18 17:28N 34°23' E 135°08'0 0.0
2018-Feb-18 16:58N 34°23' E 135°08'0 0.1
2018-Feb-18 16:28N 34°23' E 135°08'0 0.1
2018-Feb-18 15:58N 34°23' E 135°08'0 0.3
2018-Feb-18 15:31N 34°24' E 135°08'510.0
2018-Feb-18 15:01N 34°20' E 135°03'510.8
2018-Feb-18 14:30N 34°16' E 134°59'612.3
2018-Feb-18 14:00N 34°10' E 134°60'612.1
2018-Feb-18 13:30N 34°04' E 135°00'612.1
2018-Feb-18 13:00N 33°58' E 134°60'611.6
2018-Feb-18 12:30N 33°52' E 135°01'15810.0
2018-Feb-17 20:45N 34°30' E 138°07'3 7.4
2018-Feb-17 20:20N 34°31' E 138°10'3 6.7
2018-Feb-17 19:56N 34°31' E 138°14'9 7.2
2018-Feb-17 18:43N 34°31' E 138°24'2 7.3
2018-Feb-17 18:30N 34°31' E 138°26'4 7.6
2018-Feb-17 17:59N 34°31' E 138°31'4 7.5
2018-Feb-17 17:24N 34°31' E 138°36'3 7.3
2018-Feb-17 17:00N 34°31' E 138°40'6 7.7
2018-Feb-17 16:14N 34°32' E 138°47'2 6.8
2018-Feb-17 15:56N 34°32' E 138°49'3 6.8
2018-Feb-17 15:30N 34°32' E 138°53'3 5.7
2018-Feb-17 15:00N 34°32' E 138°56'3 5.8
2018-Feb-17 14:29N 34°34' E 138°60'4 7.7
2018-Feb-17 14:00N 34°36' E 139°03'4 8.6
2018-Feb-17 13:30N 34°40' E 139°06'6 8.7
2018-Feb-17 12:52N 34°44' E 139°10'3 8.3
2018-Feb-17 12:30N 34°46' E 139°13'5 9.1
2018-Feb-17 11:57N 34°50' E 139°17'5 9.7
2018-Feb-17 11:29N 34°52' E 139°22'5 9.5
2018-Feb-17 10:56N 34°55' E 139°27'4 9.8
2018-Feb-17 10:30N 34°58' E 139°31'510.2
2018-Feb-17 10:00N 35°01' E 139°36'611.7
2018-Feb-17 09:30N 35°05' E 139°41'612.1
2018-Feb-17 09:00N 35°10' E 139°45'611.9
2018-Feb-17 08:30N 35°16' E 139°46'611.9
2018-Feb-17 08:00N 35°21' E 139°42'510.4
2018-Feb-17 07:31N 35°26' E 139°45'612.0
2018-Feb-17 07:01N 35°29' E 139°51'611.1
2018-Feb-17 06:30N 35°30' E 139°58'3 5.0
2018-Feb-17 05:59N 35°29' E 140°01'0 0.0
2018-Feb-16 22:57N 35°29' E 140°01'2 5.0
2018-Feb-16 22:30N 35°30' E 139°58'0 0.7
2018-Feb-16 21:54N 35°30' E 139°58'0 0.1
2018-Feb-16 21:30N 35°30' E 139°58'0 0.0
2018-Feb-16 21:00N 35°30' E 139°58'0 0.0
2018-Feb-16 20:30N 35°30' E 139°58'0 0.0
2018-Feb-16 20:00N 35°30' E 139°58'0 0.0
2018-Feb-16 19:27N 35°30' E 139°58'0 0.0
2018-Feb-16 18:57N 35°30' E 139°58'0 0.0
2018-Feb-16 18:21N 35°30' E 139°58'0 0.0
2018-Feb-16 17:57N 35°30' E 139°58'0 0.0
2018-Feb-16 17:30N 35°30' E 139°58'0 0.0
2018-Feb-16 17:00N 35°30' E 139°58'0 0.0
2018-Feb-16 16:15N 35°30' E 139°58'0 0.0
2018-Feb-16 16:00N 35°30' E 139°58'0 0.0
2018-Feb-16 15:27N 35°30' E 139°58'0 0.1
2018-Feb-16 15:00N 35°30' E 139°58'0 0.0
2018-Feb-16 14:30N 35°30' E 139°58'0 0.0
2018-Feb-16 13:45N 35°30' E 139°58'0 0.0
2018-Feb-16 13:27N 35°30' E 139°58'0 0.0
2018-Feb-16 12:45N 35°30' E 139°58'0 0.0
2018-Feb-16 12:30N 35°30' E 139°58'0 0.0
2018-Feb-16 11:57N 35°30' E 139°58'0 0.0
2018-Feb-16 11:15N 35°30' E 139°58'0 0.0
2018-Feb-16 11:00N 35°30' E 139°58'2 4.0
2018-Feb-16 10:30N 35°30' E 139°56'611.3
2018-Feb-16 10:00N 35°31' E 139°49'1 2.6
2018-Feb-16 09:30N 35°32' E 139°48'0 0.0
2018-Feb-16 09:01N 35°32' E 139°48'0 0.0
2018-Feb-16 08:28N 35°32' E 139°48'0 0.0
2018-Feb-16 07:58N 35°32' E 139°48'0 0.0
2018-Feb-16 07:22N 35°32' E 139°48'0 0.0
2018-Feb-16 06:55N 35°32' E 139°48'0 0.0
2018-Feb-16 06:16N 35°32' E 139°48'0 0.0
2018-Feb-16 05:16N 35°32' E 139°48'0 0.0
2018-Feb-16 04:49N 35°32' E 139°48'0 0.6
2018-Feb-16 04:30N 35°32' E 139°48'3 6.5
2018-Feb-16 04:00N 35°31' E 139°52'611.7
2018-Feb-16 03:30N 35°30' E 139°59'2 0.3
2018-Feb-15 22:05N 35°29' E 140°01'0 0.5
2018-Feb-15 22:00N 35°29' E 140°01'3 5.3
2018-Feb-15 21:30N 35°30' E 139°58'0 0.1
2018-Feb-15 21:00N 35°30' E 139°58'0 0.0
2018-Feb-15 20:30N 35°30' E 139°58'0 0.0
2018-Feb-15 19:45N 35°30' E 139°58'0 0.0
2018-Feb-15 19:27N 35°30' E 139°58'0 0.0
2018-Feb-15 18:57N 35°30' E 139°58'0 0.0
2018-Feb-15 18:30N 35°30' E 139°58'0 0.0
2018-Feb-15 18:00N 35°30' E 139°58'0 0.0
2018-Feb-15 17:30N 35°30' E 139°58'0 0.1
2018-Feb-15 16:42N 35°30' E 139°58'0 0.0
2018-Feb-15 16:30N 35°30' E 139°58'0 0.0
2018-Feb-15 15:51N 35°30' E 139°58'0 0.0
2018-Feb-15 15:27N 35°30' E 139°58'0 0.0
2018-Feb-15 15:00N 35°30' E 139°58'0 0.0
2018-Feb-15 14:27N 35°30' E 139°58'0 0.0
2018-Feb-15 13:51N 35°30' E 139°58'0 0.0
2018-Feb-15 13:30N 35°30' E 139°58'0 0.0
2018-Feb-15 13:00N 35°30' E 139°58'0 0.0
2018-Feb-15 12:30N 35°30' E 139°58'0 0.0
2018-Feb-15 11:57N 35°30' E 139°58'0 0.0
2018-Feb-15 11:30N 35°30' E 139°58'0 0.0
2018-Feb-15 10:57N 35°30' E 139°58'0 0.0
2018-Feb-15 10:06N 35°30' E 139°58'0 0.0
2018-Feb-15 09:51N 35°30' E 139°58'0 0.0
2018-Feb-15 09:21N 35°30' E 139°58'0 0.0
2018-Feb-15 08:51N 35°30' E 139°58'0 0.0
2018-Feb-15 08:24N 35°30' E 139°58'0 0.0
2018-Feb-15 07:57N 35°30' E 139°58'0 0.0
2018-Feb-15 07:30N 35°30' E 139°58'0 0.0
2018-Feb-15 06:54N 35°30' E 139°58'0 0.0
2018-Feb-15 06:21N 35°30' E 139°58'0 0.0
2018-Feb-15 06:00N 35°30' E 139°58'0 0.0
2018-Feb-15 05:29N 35°30' E 139°58'0 0.0
2018-Feb-15 04:59N 35°30' E 139°58'0 0.2
2018-Feb-15 04:29N 35°30' E 139°58'3 7.1
2018-Feb-15 04:00N 35°33' E 140°00'5 9.4
2018-Feb-15 03:31N 35°36' E 140°05'0 0.1
2018-Feb-15 03:00N 35°36' E 140°05'0 0.0
2018-Feb-15 02:30N 35°36' E 140°05'0 0.0
2018-Feb-15 02:00N 35°36' E 140°05'0 0.0
2018-Feb-15 01:30N 35°36' E 140°05'0 0.0
2018-Feb-15 01:00N 35°36' E 140°05'0 0.0
2018-Feb-15 00:30N 35°36' E 140°05'0 0.0
2018-Feb-15 00:00N 35°36' E 140°05'0 0.0
2018-Feb-14 23:30N 35°36' E 140°05'0 0.0
2018-Feb-14 23:00N 35°36' E 140°05'0 0.0
2018-Feb-14 22:30N 35°36' E 140°05'1 1.2
2018-Feb-14 22:00N 35°36' E 140°04'4 7.8
2018-Feb-14 21:30N 35°34' E 139°59'1 0.2
2018-Feb-14 15:38N 35°34' E 139°58'0 0.0
2018-Feb-14 15:26N 35°34' E 139°58'0 0.0
2018-Feb-14 11:32N 35°34' E 139°58'0 0.0
2018-Feb-14 10:38N 35°34' E 139°58'0 0.4
2018-Feb-14 10:26N 35°34' E 139°58'4 8.8
2018-Feb-14 09:57N 35°31' E 139°54'512.0
2018-Feb-14 09:30N 35°27' E 139°50'611.7
2018-Feb-14 09:00N 35°22' E 139°45'510.3
2018-Feb-14 08:30N 35°17' E 139°45'611.2
2018-Feb-14 08:00N 35°12' E 139°47'612.0
2018-Feb-14 07:30N 35°06' E 139°44'612.3
2018-Feb-14 07:00N 35°02' E 139°39'713.9
2018-Feb-14 06:30N 34°58' E 139°32'1014.7
2018-Feb-14 05:52N 34°52' E 139°23'514.5
2018-Feb-14 05:29N 34°48' E 139°18'1113.7
2018-Feb-14 04:41N 34°41' E 139°08'213.6
2018-Feb-14 04:30N 34°39' E 139°06'812.5
2018-Feb-14 03:54N 34°34' E 138°59'512.5
2018-Feb-14 03:30N 34°32' E 138°54'912.8
2018-Feb-14 02:50N 34°32' E 138°43'612.7
2018-Feb-14 02:20N 34°31' E 138°36'411.8
2018-Feb-14 01:58N 34°31' E 138°31'812.1
2018-Feb-14 01:16N 34°32' E 138°20'413.0
2018-Feb-14 00:57N 34°32' E 138°15'813.4
2018-Feb-14 00:23N 34°33' E 138°06'512.4
2018-Feb-13 23:57N 34°32' E 137°60'3712.1
2018-Feb-13 20:55N 34°32' E 137°15'2011.3
2018-Feb-13 19:07N 34°39' E 136°52'1011.8
2018-Feb-13 18:15N 34°48' E 136°45'312.1
2018-Feb-13 18:00N 34°50' E 136°44'611.8
2018-Feb-13 17:30N 34°56' E 136°41'2 4.6
2018-Feb-13 17:00N 34°57' E 136°38'0 0.0
2018-Feb-13 16:29N 34°57' E 136°38'0 0.0
2018-Feb-13 15:59N 34°57' E 136°38'0 0.0
2018-Feb-13 15:29N 34°57' E 136°38'0 0.0
2018-Feb-13 14:59N 34°57' E 136°38'0 0.0
2018-Feb-13 14:29N 34°57' E 136°38'0 0.0
2018-Feb-13 13:59N 34°57' E 136°38'0 0.0
2018-Feb-13 13:29N 34°57' E 136°38'0 0.0
2018-Feb-13 12:59N 34°57' E 136°38'0 0.0
2018-Feb-13 12:29N 34°57' E 136°38'0 0.0
2018-Feb-13 11:59N 34°57' E 136°38'0 0.0
2018-Feb-13 11:29N 34°57' E 136°38'0 0.0
2018-Feb-13 10:59N 34°57' E 136°38'0 0.0
2018-Feb-13 10:29N 34°57' E 136°38'0 0.0
2018-Feb-13 09:59N 34°57' E 136°38'0 0.0
2018-Feb-13 09:29N 34°57' E 136°38'0 0.0
2018-Feb-13 09:00N 34°57' E 136°38'2 4.9
2018-Feb-13 08:30N 34°58' E 136°41'1 1.5
2018-Feb-13 07:58N 34°57' E 136°40'0 0.1
2018-Feb-13 07:28N 34°58' E 136°40'0 0.0
2018-Feb-13 06:58N 34°57' E 136°40'4 9.1
2018-Feb-13 06:30N 34°54' E 136°43'612.2
2018-Feb-13 06:00N 34°49' E 136°46'612.2
2018-Feb-13 05:30N 34°43' E 136°50'612.3
2018-Feb-13 04:59N 34°38' E 136°55'612.2
2018-Feb-13 04:29N 34°34' E 137°00'811.4
2018-Feb-13 03:47N 34°32' E 137°10'311.7
2018-Feb-13 03:30N 34°32' E 137°14'3611.5
2018-Feb-13 00:24N 34°32' E 137°57'710.4
2018-Feb-12 23:45N 34°32' E 138°05'310.2
2018-Feb-12 23:30N 34°32' E 138°08'610.0
2018-Feb-12 22:56N 34°32' E 138°15'610.6
2018-Feb-12 22:24N 34°32' E 138°22'410.7
2018-Feb-12 22:00N 34°32' E 138°27'5 9.6
2018-Feb-12 21:30N 34°32' E 138°33'5 9.2
2018-Feb-12 21:00N 34°32' E 138°38'5 8.6
2018-Feb-12 20:26N 34°32' E 138°44'3 7.6
2018-Feb-12 19:59N 34°32' E 138°49'3 7.1
2018-Feb-12 19:30N 34°32' E 138°53'3 6.6
2018-Feb-12 18:59N 34°32' E 138°57'4 7.2
2018-Feb-12 18:30N 34°34' E 139°00'5 9.4
2018-Feb-12 18:00N 34°38' E 139°04'5 9.3
2018-Feb-12 17:30N 34°41' E 139°08'510.0
2018-Feb-12 17:00N 34°45' E 139°12'5 9.8
2018-Feb-12 16:30N 34°48' E 139°17'5 9.9
2018-Feb-12 15:57N 34°52' E 139°22'6 9.6
2018-Feb-12 15:18N 34°56' E 139°28'310.1
2018-Feb-12 14:57N 34°58' E 139°31'511.0
2018-Feb-12 14:29N 35°01' E 139°35'511.3
2018-Feb-12 14:00N 35°05' E 139°41'611.3
2018-Feb-12 13:30N 35°09' E 139°45'612.2
2018-Feb-12 13:01N 35°15' E 139°46'713.0
2018-Feb-12 12:30N 35°21' E 139°42'611.7
2018-Feb-12 12:01N 35°26' E 139°46'612.3
2018-Feb-12 11:30N 35°30' E 139°52'612.3
2018-Feb-12 11:01N 35°33' E 139°58'611.5
2018-Feb-12 10:30N 35°36' E 140°04'0 0.4
2018-Feb-12 09:58N 35°36' E 140°05'0 0.0
2018-Feb-12 09:28N 35°36' E 140°05'0 0.0
2018-Feb-12 08:58N 35°36' E 140°05'0 0.0
2018-Feb-12 08:25N 35°36' E 140°05'0 0.0
2018-Feb-12 07:58N 35°36' E 140°05'0 0.0
2018-Feb-12 07:28N 35°36' E 140°05'0 0.0
2018-Feb-12 06:55N 35°36' E 140°05'0 0.0
2018-Feb-12 06:28N 35°36' E 140°05'0 0.0
2018-Feb-12 05:58N 35°36' E 140°05'0 0.0
2018-Feb-12 05:28N 35°36' E 140°05'0 0.2
2018-Feb-12 05:00N 35°36' E 140°05'3 5.8
2018-Feb-12 04:31N 35°35' E 140°01'5 9.1
2018-Feb-12 04:00N 35°34' E 139°56'0 0.0
2018-Feb-11 22:46N 35°34' E 139°56'0 0.1
2018-Feb-11 22:01N 35°34' E 139°56'0 0.1
2018-Feb-11 21:49N 35°34' E 139°56'0 0.1
2018-Feb-11 21:22N 35°34' E 139°56'0 0.0
2018-Feb-11 20:19N 35°34' E 139°56'0 0.0
2018-Feb-11 19:55N 35°34' E 139°56'0 0.0
2018-Feb-11 19:13N 35°34' E 139°56'0 0.0
2018-Feb-11 18:55N 35°34' E 139°56'0 0.0
2018-Feb-11 18:13N 35°34' E 139°56'0 0.0
2018-Feb-11 17:55N 35°34' E 139°56'0 0.0
2018-Feb-11 17:25N 35°34' E 139°56'0 0.0
2018-Feb-11 16:43N 35°34' E 139°56'0 0.0
2018-Feb-11 16:25N 35°34' E 139°56'0 0.0
2018-Feb-11 15:43N 35°34' E 139°56'0 0.0
2018-Feb-11 15:25N 35°34' E 139°56'0 0.0
2018-Feb-11 14:55N 35°34' E 139°56'0 0.1
2018-Feb-11 14:29N 35°34' E 139°56'4 9.0
2018-Feb-11 14:00N 35°30' E 139°59'2 4.1
2018-Feb-11 13:30N 35°29' E 140°01'0 0.0
2018-Feb-11 05:18N 35°29' E 140°01'1 1.9
2018-Feb-11 05:00N 35°29' E 140°00'5 9.7
2018-Feb-11 04:30N 35°34' E 140°02'3 5.7
2018-Feb-11 03:57N 35°36' E 140°05'0 0.0
2018-Feb-11 03:30N 35°36' E 140°05'  
Track history (hours):
 
Tides and Currents Weather Stations Pressure Air Temp Water Temp Dewpoint Dewpoint Depression Visibility Wind Speed Wind Dir Waves Ship Positions

Toyomasa Maru

Last reported at 2018-Feb-21 03:23 UTC. Time now 2018-Feb-21 03:54 UTC.
Position N 34°34' E 138°60'.

Length 101 m; draft 6.7 m.

Type: Tanker. MMSI: 431300401.

Date/timePositionNaut miles runAvg speedWind from/ knotsBaromVisibWave heightAir tempDewpointWater temp
2018-Feb-21 03:23N 34°34' E 138°60'411.7
2018-Feb-21 03:00N 34°33' E 138°55'1211.1
2018-Feb-21 01:54N 34°32' E 138°40'512.2
2018-Feb-21 01:27N 34°31' E 138°33'812.4
2018-Feb-21 00:50N 34°32' E 138°24'512.2
2018-Feb-21 00:25N 34°32' E 138°18'712.3
2018-Feb-20 23:53N 34°33' E 138°10'512.8
2018-Feb-20 23:30N 34°33' E 138°04'4012.6
2018-Feb-20 20:19N 34°32' E 137°16'2011.2
2018-Feb-20 18:30N 34°39' E 136°52'612.2
2018-Feb-20 18:00N 34°43' E 136°48'612.4
2018-Feb-20 17:30N 34°49' E 136°45'612.1
2018-Feb-20 17:01N 34°55' E 136°42'4 7.5
2018-Feb-20 16:31N 34°57' E 136°38'0 0.1
2018-Feb-20 15:07N 34°57' E 136°38'0 0.2
2018-Feb-20 14:55N 34°57' E 136°38'0 0.0
2018-Feb-20 13:43N 34°57' E 136°38'0 0.0
2018-Feb-20 13:28N 34°57' E 136°38'0 0.0
2018-Feb-20 12:58N 34°57' E 136°38'0 0.0
2018-Feb-20 12:25N 34°57' E 136°38'0 0.0
2018-Feb-20 11:49N 34°57' E 136°38'0 0.0
2018-Feb-20 11:25N 34°57' E 136°38'0 0.1
2018-Feb-20 10:58N 34°57' E 136°38'0 0.1
2018-Feb-20 10:25N 34°57' E 136°38'0 0.0
2018-Feb-20 09:55N 34°57' E 136°38'0 0.0
2018-Feb-20 09:25N 34°57' E 136°38'0 0.0
2018-Feb-20 08:55N 34°57' E 136°38'0 0.0
2018-Feb-20 08:25N 34°57' E 136°38'0 0.0
2018-Feb-20 07:55N 34°57' E 136°38'0 0.0
2018-Feb-20 07:30N 34°57' E 136°38'2 4.4
2018-Feb-20 07:00N 34°56' E 136°41'3 4.9
2018-Feb-20 06:25N 34°53' E 136°41'0 0.1
2018-Feb-20 05:58N 34°53' E 136°41'0 0.1
2018-Feb-20 05:28N 34°53' E 136°41'0 0.0
2018-Feb-20 04:58N 34°53' E 136°41'0 0.0
2018-Feb-20 04:28N 34°53' E 136°41'0 0.1
2018-Feb-20 03:55N 34°53' E 136°41'0 0.0
2018-Feb-20 03:28N 34°53' E 136°41'0 0.1
2018-Feb-20 02:58N 34°53' E 136°41'0 0.0
2018-Feb-20 02:25N 34°53' E 136°41'0 0.0
2018-Feb-20 01:58N 34°53' E 136°41'0 0.0
2018-Feb-20 01:28N 34°53' E 136°41'0 0.0
2018-Feb-20 00:55N 34°53' E 136°41'0 0.1
2018-Feb-20 00:28N 34°53' E 136°41'0 0.0
2018-Feb-19 23:55N 34°53' E 136°41'0 0.0
2018-Feb-19 23:25N 34°53' E 136°41'0 0.0
2018-Feb-19 22:55N 34°53' E 136°41'0 0.1
2018-Feb-19 22:28N 34°53' E 136°41'0 0.0
2018-Feb-19 21:58N 34°53' E 136°41'0 0.1
2018-Feb-19 21:28N 34°53' E 136°41'510.2
2018-Feb-19 21:00N 34°50' E 136°44'612.5
2018-Feb-19 20:30N 34°45' E 136°49'612.4
2018-Feb-19 20:00N 34°39' E 136°53'712.8
2018-Feb-19 19:29N 34°35' E 136°59'106 9.2
2018-Feb-19 07:58N 33°50' E 135°03'613.2
2018-Feb-19 07:30N 33°55' E 134°60'713.6
2018-Feb-19 07:00N 34°02' E 134°59'713.6
2018-Feb-19 06:30N 34°09' E 134°59'713.9
2018-Feb-19 06:00N 34°16' E 134°58'612.6
2018-Feb-19 05:30N 34°22' E 135°01'713.2
2018-Feb-19 05:00N 34°24' E 135°08'5 9.1
2018-Feb-19 04:31N 34°24' E 135°14'1 1.8
2018-Feb-19 04:00N 34°25' E 135°14'0 0.0
2018-Feb-19 03:30N 34°25' E 135°14'0 0.0
2018-Feb-19 03:00N 34°25' E 135°14'0 0.0
2018-Feb-19 02:30N 34°25' E 135°14'0 0.0
2018-Feb-19 02:00N 34°25' E 135°14'0 0.0
2018-Feb-19 01:30N 34°25' E 135°14'0 0.0
2018-Feb-19 01:00N 34°25' E 135°14'0 0.0
2018-Feb-19 00:30N 34°25' E 135°14'1 2.0
2018-Feb-19 00:00N 34°24' E 135°14'3 6.1
2018-Feb-18 23:30N 34°25' E 135°11'2 3.7
2018-Feb-18 23:01N 34°24' E 135°09'1 2.3
2018-Feb-18 22:28N 34°24' E 135°08'0 0.1
2018-Feb-18 21:58N 34°24' E 135°08'0 0.1
2018-Feb-18 21:28N 34°23' E 135°08'0 0.0
2018-Feb-18 20:58N 34°23' E 135°08'0 0.0
2018-Feb-18 20:28N 34°23' E 135°08'0 0.0
2018-Feb-18 19:58N 34°23' E 135°08'0 0.0
2018-Feb-18 19:28N 34°23' E 135°08'0 0.0
2018-Feb-18 18:58N 34°23' E 135°08'0 0.0
2018-Feb-18 18:28N 34°23' E 135°08'0 0.0
2018-Feb-18 17:58N 34°23' E 135°08'0 0.0
2018-Feb-18 17:28N 34°23' E 135°08'0 0.0
2018-Feb-18 16:58N 34°23' E 135°08'0 0.1
2018-Feb-18 16:28N 34°23' E 135°08'0 0.1
2018-Feb-18 15:58N 34°23' E 135°08'0 0.3
2018-Feb-18 15:31N 34°24' E 135°08'510.0
2018-Feb-18 15:01N 34°20' E 135°03'510.8
2018-Feb-18 14:30N 34°16' E 134°59'612.3
2018-Feb-18 14:00N 34°10' E 134°60'612.1
2018-Feb-18 13:30N 34°04' E 135°00'612.1
2018-Feb-18 13:00N 33°58' E 134°60'611.6
2018-Feb-18 12:30N 33°52' E 135°01'15810.0
2018-Feb-17 20:45N 34°30' E 138°07'3 7.4
2018-Feb-17 20:20N 34°31' E 138°10'3 6.7
2018-Feb-17 19:56N 34°31' E 138°14'9 7.2
2018-Feb-17 18:43N 34°31' E 138°24'2 7.3
2018-Feb-17 18:30N 34°31' E 138°26'4 7.6
2018-Feb-17 17:59N 34°31' E 138°31'4 7.5
2018-Feb-17 17:24N 34°31' E 138°36'3 7.3
2018-Feb-17 17:00N 34°31' E 138°40'6 7.7
2018-Feb-17 16:14N 34°32' E 138°47'2 6.8
2018-Feb-17 15:56N 34°32' E 138°49'3 6.8
2018-Feb-17 15:30N 34°32' E 138°53'3 5.7
2018-Feb-17 15:00N 34°32' E 138°56'3 5.8
2018-Feb-17 14:29N 34°34' E 138°60'4 7.7
2018-Feb-17 14:00N 34°36' E 139°03'4 8.6
2018-Feb-17 13:30N 34°40' E 139°06'6 8.7
2018-Feb-17 12:52N 34°44' E 139°10'3 8.3
2018-Feb-17 12:30N 34°46' E 139°13'5 9.1
2018-Feb-17 11:57N 34°50' E 139°17'5 9.7
2018-Feb-17 11:29N 34°52' E 139°22'5 9.5
2018-Feb-17 10:56N 34°55' E 139°27'4 9.8
2018-Feb-17 10:30N 34°58' E 139°31'510.2
2018-Feb-17 10:00N 35°01' E 139°36'611.7
2018-Feb-17 09:30N 35°05' E 139°41'612.1
2018-Feb-17 09:00N 35°10' E 139°45'611.9
2018-Feb-17 08:30N 35°16' E 139°46'611.9
2018-Feb-17 08:00N 35°21' E 139°42'510.4
2018-Feb-17 07:31N 35°26' E 139°45'612.0
2018-Feb-17 07:01N 35°29' E 139°51'611.1
2018-Feb-17 06:30N 35°30' E 139°58'3 5.0
2018-Feb-17 05:59N 35°29' E 140°01'0 0.0
2018-Feb-16 22:57N 35°29' E 140°01'2 5.0
2018-Feb-16 22:30N 35°30' E 139°58'0 0.7
2018-Feb-16 21:54N 35°30' E 139°58'0 0.1
2018-Feb-16 21:30N 35°30' E 139°58'0 0.0
2018-Feb-16 21:00N 35°30' E 139°58'0 0.0
2018-Feb-16 20:30N 35°30' E 139°58'0 0.0
2018-Feb-16 20:00N 35°30' E 139°58'0 0.0
2018-Feb-16 19:27N 35°30' E 139°58'0 0.0
2018-Feb-16 18:57N 35°30' E 139°58'0 0.0
2018-Feb-16 18:21N 35°30' E 139°58'0 0.0
2018-Feb-16 17:57N 35°30' E 139°58'0 0.0
2018-Feb-16 17:30N 35°30' E 139°58'0 0.0
2018-Feb-16 17:00N 35°30' E 139°58'0 0.0
2018-Feb-16 16:15N 35°30' E 139°58'0 0.0
2018-Feb-16 16:00N 35°30' E 139°58'0 0.0
2018-Feb-16 15:27N 35°30' E 139°58'0 0.1
2018-Feb-16 15:00N 35°30' E 139°58'0 0.0
2018-Feb-16 14:30N 35°30' E 139°58'0 0.0
2018-Feb-16 13:45N 35°30' E 139°58'0 0.0
2018-Feb-16 13:27N 35°30' E 139°58'0 0.0
2018-Feb-16 12:45N 35°30' E 139°58'0 0.0
2018-Feb-16 12:30N 35°30' E 139°58'0 0.0
2018-Feb-16 11:57N 35°30' E 139°58'0 0.0
2018-Feb-16 11:15N 35°30' E 139°58'0 0.0
2018-Feb-16 11:00N 35°30' E 139°58'2 4.0
2018-Feb-16 10:30N 35°30' E 139°56'611.3
2018-Feb-16 10:00N 35°31' E 139°49'1 2.6
2018-Feb-16 09:30N 35°32' E 139°48'0 0.0
2018-Feb-16 09:01N 35°32' E 139°48'0 0.0
2018-Feb-16 08:28N 35°32' E 139°48'0 0.0
2018-Feb-16 07:58N 35°32' E 139°48'0 0.0
2018-Feb-16 07:22N 35°32' E 139°48'0 0.0
2018-Feb-16 06:55N 35°32' E 139°48'0 0.0
2018-Feb-16 06:16N 35°32' E 139°48'0 0.0
2018-Feb-16 05:16N 35°32' E 139°48'0 0.0
2018-Feb-16 04:49N 35°32' E 139°48'0 0.6
2018-Feb-16 04:30N 35°32' E 139°48'3 6.5
2018-Feb-16 04:00N 35°31' E 139°52'611.7
2018-Feb-16 03:30N 35°30' E 139°59'2 0.3
2018-Feb-15 22:05N 35°29' E 140°01'0 0.5
2018-Feb-15 22:00N 35°29' E 140°01'3 5.3
2018-Feb-15 21:30N 35°30' E 139°58'0 0.1
2018-Feb-15 21:00N 35°30' E 139°58'0 0.0
2018-Feb-15 20:30N 35°30' E 139°58'0 0.0
2018-Feb-15 19:45N 35°30' E 139°58'0 0.0
2018-Feb-15 19:27N 35°30' E 139°58'0 0.0
2018-Feb-15 18:57N 35°30' E 139°58'0 0.0
2018-Feb-15 18:30N 35°30' E 139°58'0 0.0
2018-Feb-15 18:00N 35°30' E 139°58'0 0.0
2018-Feb-15 17:30N 35°30' E 139°58'0 0.1
2018-Feb-15 16:42N 35°30' E 139°58'0 0.0
2018-Feb-15 16:30N 35°30' E 139°58'0 0.0
2018-Feb-15 15:51N 35°30' E 139°58'0 0.0
2018-Feb-15 15:27N 35°30' E 139°58'0 0.0
2018-Feb-15 15:00N 35°30' E 139°58'0 0.0
2018-Feb-15 14:27N 35°30' E 139°58'0 0.0
2018-Feb-15 13:51N 35°30' E 139°58'0 0.0
2018-Feb-15 13:30N 35°30' E 139°58'0 0.0
2018-Feb-15 13:00N 35°30' E 139°58'0 0.0
2018-Feb-15 12:30N 35°30' E 139°58'0 0.0
2018-Feb-15 11:57N 35°30' E 139°58'0 0.0
2018-Feb-15 11:30N 35°30' E 139°58'0 0.0
2018-Feb-15 10:57N 35°30' E 139°58'0 0.0
2018-Feb-15 10:06N 35°30' E 139°58'0 0.0
2018-Feb-15 09:51N 35°30' E 139°58'0 0.0
2018-Feb-15 09:21N 35°30' E 139°58'0 0.0
2018-Feb-15 08:51N 35°30' E 139°58'0 0.0
2018-Feb-15 08:24N 35°30' E 139°58'0 0.0
2018-Feb-15 07:57N 35°30' E 139°58'0 0.0
2018-Feb-15 07:30N 35°30' E 139°58'0 0.0
2018-Feb-15 06:54N 35°30' E 139°58'0 0.0
2018-Feb-15 06:21N 35°30' E 139°58'0 0.0
2018-Feb-15 06:00N 35°30' E 139°58'0 0.0
2018-Feb-15 05:29N 35°30' E 139°58'0 0.0
2018-Feb-15 04:59N 35°30' E 139°58'0 0.2
2018-Feb-15 04:29N 35°30' E 139°58'3 7.1
2018-Feb-15 04:00N 35°33' E 140°00'5 9.4
2018-Feb-15 03:31N 35°36' E 140°05'0 0.1
2018-Feb-15 03:00N 35°36' E 140°05'0 0.0
2018-Feb-15 02:30N 35°36' E 140°05'0 0.0
2018-Feb-15 02:00N 35°36' E 140°05'0 0.0
2018-Feb-15 01:30N 35°36' E 140°05'0 0.0
2018-Feb-15 01:00N 35°36' E 140°05'0 0.0
2018-Feb-15 00:30N 35°36' E 140°05'0 0.0
2018-Feb-15 00:00N 35°36' E 140°05'0 0.0
2018-Feb-14 23:30N 35°36' E 140°05'0 0.0
2018-Feb-14 23:00N 35°36' E 140°05'0 0.0
2018-Feb-14 22:30N 35°36' E 140°05'1 1.2
2018-Feb-14 22:00N 35°36' E 140°04'4 7.8
2018-Feb-14 21:30N 35°34' E 139°59'1 0.2
2018-Feb-14 15:38N 35°34' E 139°58'0 0.0
2018-Feb-14 15:26N 35°34' E 139°58'0 0.0
2018-Feb-14 11:32N 35°34' E 139°58'0 0.0
2018-Feb-14 10:38N 35°34' E 139°58'0 0.4
2018-Feb-14 10:26N 35°34' E 139°58'4 8.8
2018-Feb-14 09:57N 35°31' E 139°54'512.0
2018-Feb-14 09:30N 35°27' E 139°50'611.7
2018-Feb-14 09:00N 35°22' E 139°45'510.3
2018-Feb-14 08:30N 35°17' E 139°45'611.2
2018-Feb-14 08:00N 35°12' E 139°47'612.0
2018-Feb-14 07:30N 35°06' E 139°44'612.3
2018-Feb-14 07:00N 35°02' E 139°39'713.9
2018-Feb-14 06:30N 34°58' E 139°32'1014.7
2018-Feb-14 05:52N 34°52' E 139°23'514.5
2018-Feb-14 05:29N 34°48' E 139°18'1113.7
2018-Feb-14 04:41N 34°41' E 139°08'213.6
2018-Feb-14 04:30N 34°39' E 139°06'812.5
2018-Feb-14 03:54N 34°34' E 138°59'512.5
2018-Feb-14 03:30N 34°32' E 138°54'912.8
2018-Feb-14 02:50N 34°32' E 138°43'612.7
2018-Feb-14 02:20N 34°31' E 138°36'411.8
2018-Feb-14 01:58N 34°31' E 138°31'812.1
2018-Feb-14 01:16N 34°32' E 138°20'413.0
2018-Feb-14 00:57N 34°32' E 138°15'813.4
2018-Feb-14 00:23N 34°33' E 138°06'512.4
2018-Feb-13 23:57N 34°32' E 137°60'3712.1
2018-Feb-13 20:55N 34°32' E 137°15'2011.3
2018-Feb-13 19:07N 34°39' E 136°52'1011.8
2018-Feb-13 18:15N 34°48' E 136°45'312.1
2018-Feb-13 18:00N 34°50' E 136°44'611.8
2018-Feb-13 17:30N 34°56' E 136°41'2 4.6
2018-Feb-13 17:00N 34°57' E 136°38'0 0.0
2018-Feb-13 16:29N 34°57' E 136°38'0 0.0
2018-Feb-13 15:59N 34°57' E 136°38'0 0.0
2018-Feb-13 15:29N 34°57' E 136°38'0 0.0
2018-Feb-13 14:59N 34°57' E 136°38'0 0.0
2018-Feb-13 14:29N 34°57' E 136°38'0 0.0
2018-Feb-13 13:59N 34°57' E 136°38'0 0.0
2018-Feb-13 13:29N 34°57' E 136°38'0 0.0
2018-Feb-13 12:59N 34°57' E 136°38'0 0.0
2018-Feb-13 12:29N 34°57' E 136°38'0 0.0
2018-Feb-13 11:59N 34°57' E 136°38'0 0.0
2018-Feb-13 11:29N 34°57' E 136°38'0 0.0
2018-Feb-13 10:59N 34°57' E 136°38'0 0.0
2018-Feb-13 10:29N 34°57' E 136°38'0 0.0
2018-Feb-13 09:59N 34°57' E 136°38'0 0.0
2018-Feb-13 09:29N 34°57' E 136°38'0 0.0
2018-Feb-13 09:00N 34°57' E 136°38'2 4.9
2018-Feb-13 08:30N 34°58' E 136°41'1 1.5
2018-Feb-13 07:58N 34°57' E 136°40'0 0.1
2018-Feb-13 07:28N 34°58' E 136°40'0 0.0
2018-Feb-13 06:58N 34°57' E 136°40'4 9.1
2018-Feb-13 06:30N 34°54' E 136°43'612.2
2018-Feb-13 06:00N 34°49' E 136°46'612.2
2018-Feb-13 05:30N 34°43' E 136°50'612.3
2018-Feb-13 04:59N 34°38' E 136°55'612.2
2018-Feb-13 04:29N 34°34' E 137°00'811.4
2018-Feb-13 03:47N 34°32' E 137°10'311.7
2018-Feb-13 03:30N 34°32' E 137°14'3611.5
2018-Feb-13 00:24N 34°32' E 137°57'710.4
2018-Feb-12 23:45N 34°32' E 138°05'310.2
2018-Feb-12 23:30N 34°32' E 138°08'610.0
2018-Feb-12 22:56N 34°32' E 138°15'610.6
2018-Feb-12 22:24N 34°32' E 138°22'410.7
2018-Feb-12 22:00N 34°32' E 138°27'5 9.6
2018-Feb-12 21:30N 34°32' E 138°33'5 9.2
2018-Feb-12 21:00N 34°32' E 138°38'5 8.6
2018-Feb-12 20:26N 34°32' E 138°44'3 7.6
2018-Feb-12 19:59N 34°32' E 138°49'3 7.1
2018-Feb-12 19:30N 34°32' E 138°53'3 6.6
2018-Feb-12 18:59N 34°32' E 138°57'4 7.2
2018-Feb-12 18:30N 34°34' E 139°00'5 9.4
2018-Feb-12 18:00N 34°38' E 139°04'5 9.3
2018-Feb-12 17:30N 34°41' E 139°08'510.0
2018-Feb-12 17:00N 34°45' E 139°12'5 9.8
2018-Feb-12 16:30N 34°48' E 139°17'5 9.9
2018-Feb-12 15:57N 34°52' E 139°22'6 9.6
2018-Feb-12 15:18N 34°56' E 139°28'310.1
2018-Feb-12 14:57N 34°58' E 139°31'511.0
2018-Feb-12 14:29N 35°01' E 139°35'511.3
2018-Feb-12 14:00N 35°05' E 139°41'611.3
2018-Feb-12 13:30N 35°09' E 139°45'612.2
2018-Feb-12 13:01N 35°15' E 139°46'713.0
2018-Feb-12 12:30N 35°21' E 139°42'611.7
2018-Feb-12 12:01N 35°26' E 139°46'612.3
2018-Feb-12 11:30N 35°30' E 139°52'612.3
2018-Feb-12 11:01N 35°33' E 139°58'611.5
2018-Feb-12 10:30N 35°36' E 140°04'0 0.4
2018-Feb-12 09:58N 35°36' E 140°05'0 0.0
2018-Feb-12 09:28N 35°36' E 140°05'0 0.0
2018-Feb-12 08:58N 35°36' E 140°05'0 0.0
2018-Feb-12 08:25N 35°36' E 140°05'0 0.0
2018-Feb-12 07:58N 35°36' E 140°05'0 0.0
2018-Feb-12 07:28N 35°36' E 140°05'0 0.0
2018-Feb-12 06:55N 35°36' E 140°05'0 0.0
2018-Feb-12 06:28N 35°36' E 140°05'0 0.0
2018-Feb-12 05:58N 35°36' E 140°05'0 0.0
2018-Feb-12 05:28N 35°36' E 140°05'0 0.2
2018-Feb-12 05:00N 35°36' E 140°05'3 5.8
2018-Feb-12 04:31N 35°35' E 140°01'5 9.1
2018-Feb-12 04:00N 35°34' E 139°56'0 0.0
2018-Feb-11 22:46N 35°34' E 139°56'0 0.1
2018-Feb-11 22:01N 35°34' E 139°56'0 0.1
2018-Feb-11 21:49N 35°34' E 139°56'0 0.1
2018-Feb-11 21:22N 35°34' E 139°56'0 0.0
2018-Feb-11 20:19N 35°34' E 139°56'0 0.0
2018-Feb-11 19:55N 35°34' E 139°56'0 0.0
2018-Feb-11 19:13N 35°34' E 139°56'0 0.0
2018-Feb-11 18:55N 35°34' E 139°56'0 0.0
2018-Feb-11 18:13N 35°34' E 139°56'0 0.0
2018-Feb-11 17:55N 35°34' E 139°56'0 0.0
2018-Feb-11 17:25N 35°34' E 139°56'0 0.0
2018-Feb-11 16:43N 35°34' E 139°56'0 0.0
2018-Feb-11 16:25N 35°34' E 139°56'0 0.0
2018-Feb-11 15:43N 35°34' E 139°56'0 0.0
2018-Feb-11 15:25N 35°34' E 139°56'0 0.0
2018-Feb-11 14:55N 35°34' E 139°56'0 0.1
2018-Feb-11 14:29N 35°34' E 139°56'4 9.0
2018-Feb-11 14:00N 35°30' E 139°59'2 4.1
2018-Feb-11 13:30N 35°29' E 140°01'0 0.0
2018-Feb-11 05:18N 35°29' E 140°01'1 1.9
2018-Feb-11 05:00N 35°29' E 140°00'5 9.7
2018-Feb-11 04:30N 35°34' E 140°02'3 5.7
2018-Feb-11 03:57N 35°36' E 140°05'0 0.0
2018-Feb-11 03:30N 35°36' E 140°05'  

Dump ship's entire track history